sensor_id;sensor_type;location;lat;lon;timestamp;P1;P2;P0
77365;PMS5003;66430;50.182;11.704;2023-04-03T00:02:22;13;13;
77365;PMS5003;66430;50.182;11.704;2023-04-03T00:04:48;10;9;
77365;PMS5003;66430;50.182;11.704;2023-04-03T00:07:14;19;14;
77365;PMS5003;66430;50.182;11.704;2023-04-03T00:09:39;15;15;
77365;PMS5003;66430;50.182;11.704;2023-04-03T00:12:05;17;14;
77365;PMS5003;66430;50.182;11.704;2023-04-03T00:14:31;18;15;
77365;PMS5003;66430;50.182;11.704;2023-04-03T00:16:56;21;19;
77365;PMS5003;66430;50.182;11.704;2023-04-03T00:19:21;14;14;
77365;PMS5003;66430;50.182;11.704;2023-04-03T00:21:47;16;15;
77365;PMS5003;66430;50.182;11.704;2023-04-03T00:24:13;15;15;
77365;PMS5003;66430;50.182;11.704;2023-04-03T00:26:38;20;16;
77365;PMS5003;66430;50.182;11.704;2023-04-03T00:29:04;15;15;
77365;PMS5003;66430;50.182;11.704;2023-04-03T00:31:29;16;15;
77365;PMS5003;66430;50.182;11.704;2023-04-03T00:33:55;19;18;
77365;PMS5003;66430;50.182;11.704;2023-04-03T00:36:20;20;15;
77365;PMS5003;66430;50.182;11.704;2023-04-03T00:38:46;15;14;
77365;PMS5003;66430;50.182;11.704;2023-04-03T00:41:11;18;18;
77365;PMS5003;66430;50.182;11.704;2023-04-03T00:43:37;18;15;
77365;PMS5003;66430;50.182;11.704;2023-04-03T00:46:03;18;15;
77365;PMS5003;66430;50.182;11.704;2023-04-03T00:48:29;19;18;
77365;PMS5003;66430;50.182;11.704;2023-04-03T00:50:54;16;16;
77365;PMS5003;66430;50.182;11.704;2023-04-03T00:53:21;15;15;
77365;PMS5003;66430;50.182;11.704;2023-04-03T00:55:45;15;15;
77365;PMS5003;66430;50.182;11.704;2023-04-03T00:58:10;20;20;
77365;PMS5003;66430;50.182;11.704;2023-04-03T01:00:36;20;18;
77365;PMS5003;66430;50.182;11.704;2023-04-03T01:03:01;17;15;
77365;PMS5003;66430;50.182;11.704;2023-04-03T01:05:27;19;18;
77365;PMS5003;66430;50.182;11.704;2023-04-03T01:07:53;17;13;
77365;PMS5003;66430;50.182;11.704;2023-04-03T01:10:19;14;13;
77365;PMS5003;66430;50.182;11.704;2023-04-03T01:12:45;20;14;
77365;PMS5003;66430;50.182;11.704;2023-04-03T01:15:11;17;15;
77365;PMS5003;66430;50.182;11.704;2023-04-03T01:17:37;13;12;
77365;PMS5003;66430;50.182;11.704;2023-04-03T01:20:14;15;13;
77365;PMS5003;66430;50.182;11.704;2023-04-03T01:22:27;13;13;
77365;PMS5003;66430;50.182;11.704;2023-04-03T01:24:52;14;14;
77365;PMS5003;66430;50.182;11.704;2023-04-03T01:27:18;13;13;
77365;PMS5003;66430;50.182;11.704;2023-04-03T01:29:43;15;14;
77365;PMS5003;66430;50.182;11.704;2023-04-03T01:32:09;13;13;
77365;PMS5003;66430;50.182;11.704;2023-04-03T01:34:35;15;15;
77365;PMS5003;66430;50.182;11.704;2023-04-03T01:37:00;15;14;
77365;PMS5003;66430;50.182;11.704;2023-04-03T01:39:26;15;13;
77365;PMS5003;66430;50.182;11.704;2023-04-03T01:41:52;15;14;
77365;PMS5003;66430;50.182;11.704;2023-04-03T01:44:17;14;13;
77365;PMS5003;66430;50.182;11.704;2023-04-03T01:46:43;10;10;
77365;PMS5003;66430;50.182;11.704;2023-04-03T01:49:08;14;13;
77365;PMS5003;66430;50.182;11.704;2023-04-03T01:51:34;9;9;
77365;PMS5003;66430;50.182;11.704;2023-04-03T01:54:00;12;12;
77365;PMS5003;66430;50.182;11.704;2023-04-03T01:56:25;13;13;
77365;PMS5003;66430;50.182;11.704;2023-04-03T01:58:50;17;14;
77365;PMS5003;66430;50.182;11.704;2023-04-03T02:01:16;13;13;
77365;PMS5003;66430;50.182;11.704;2023-04-03T02:03:41;12;9;
77365;PMS5003;66430;50.182;11.704;2023-04-03T02:06:07;12;12;
77365;PMS5003;66430;50.182;11.704;2023-04-03T02:08:32;16;13;
77365;PMS5003;66430;50.182;11.704;2023-04-03T02:10:58;12;12;
77365;PMS5003;66430;50.182;11.704;2023-04-03T02:13:24;14;11;
77365;PMS5003;66430;50.182;11.704;2023-04-03T02:15:49;10;10;
77365;PMS5003;66430;50.182;11.704;2023-04-03T02:18:15;13;13;
77365;PMS5003;66430;50.182;11.704;2023-04-03T02:20:41;13;12;
77365;PMS5003;66430;50.182;11.704;2023-04-03T02:23:06;12;9;
77365;PMS5003;66430;50.182;11.704;2023-04-03T02:25:32;12;10;
77365;PMS5003;66430;50.182;11.704;2023-04-03T02:27:58;13;11;
77365;PMS5003;66430;50.182;11.704;2023-04-03T02:30:23;13;11;
77365;PMS5003;66430;50.182;11.704;2023-04-03T02:32:49;15;10;
77365;PMS5003;66430;50.182;11.704;2023-04-03T02:35:14;13;11;
77365;PMS5003;66430;50.182;11.704;2023-04-03T02:37:40;9;9;
77365;PMS5003;66430;50.182;11.704;2023-04-03T02:40:06;18;14;
77365;PMS5003;66430;50.182;11.704;2023-04-03T02:42:30;14;12;
77365;PMS5003;66430;50.182;11.704;2023-04-03T02:44:56;16;12;
77365;PMS5003;66430;50.182;11.704;2023-04-03T02:47:21;14;13;
77365;PMS5003;66430;50.182;11.704;2023-04-03T02:49:47;13;12;
77365;PMS5003;66430;50.182;11.704;2023-04-03T02:52:12;15;13;
77365;PMS5003;66430;50.182;11.704;2023-04-03T02:54:38;15;11;
77365;PMS5003;66430;50.182;11.704;2023-04-03T02:57:04;14;14;
77365;PMS5003;66430;50.182;11.704;2023-04-03T02:59:29;17;12;
77365;PMS5003;66430;50.182;11.704;2023-04-03T03:01:55;18;15;
77365;PMS5003;66430;50.182;11.704;2023-04-03T03:04:20;13;12;
77365;PMS5003;66430;50.182;11.704;2023-04-03T03:06:45;13;13;
77365;PMS5003;66430;50.182;11.704;2023-04-03T03:09:11;14;12;
77365;PMS5003;66430;50.182;11.704;2023-04-03T03:11:37;13;12;
77365;PMS5003;66430;50.182;11.704;2023-04-03T03:14:02;12;11;
77365;PMS5003;66430;50.182;11.704;2023-04-03T03:16:28;17;16;
77365;PMS5003;66430;50.182;11.704;2023-04-03T03:18:53;18;12;
77365;PMS5003;66430;50.182;11.704;2023-04-03T03:21:19;13;12;
77365;PMS5003;66430;50.182;11.704;2023-04-03T03:23:44;17;17;
77365;PMS5003;66430;50.182;11.704;2023-04-03T03:26:10;18;17;
77365;PMS5003;66430;50.182;11.704;2023-04-03T03:28:36;14;13;
77365;PMS5003;66430;50.182;11.704;2023-04-03T03:31:01;16;14;
77365;PMS5003;66430;50.182;11.704;2023-04-03T03:33:27;14;13;
77365;PMS5003;66430;50.182;11.704;2023-04-03T03:35:52;19;16;
77365;PMS5003;66430;50.182;11.704;2023-04-03T03:38:18;14;14;
77365;PMS5003;66430;50.182;11.704;2023-04-03T03:40:43;16;14;
77365;PMS5003;66430;50.182;11.704;2023-04-03T03:43:09;18;18;
77365;PMS5003;66430;50.182;11.704;2023-04-03T03:45:35;17;12;
77365;PMS5003;66430;50.182;11.704;2023-04-03T03:48:00;22;16;
77365;PMS5003;66430;50.182;11.704;2023-04-03T03:50:25;17;15;
77365;PMS5003;66430;50.182;11.704;2023-04-03T03:52:51;23;20;
77365;PMS5003;66430;50.182;11.704;2023-04-03T03:55:16;16;13;
77365;PMS5003;66430;50.182;11.704;2023-04-03T03:57:42;16;16;
77365;PMS5003;66430;50.182;11.704;2023-04-03T04:00:08;17;16;
77365;PMS5003;66430;50.182;11.704;2023-04-03T04:02:32;16;16;
77365;PMS5003;66430;50.182;11.704;2023-04-03T04:04:58;17;17;
77365;PMS5003;66430;50.182;11.704;2023-04-03T04:07:23;20;20;
77365;PMS5003;66430;50.182;11.704;2023-04-03T04:09:54;21;20;
77365;PMS5003;66430;50.182;11.704;2023-04-03T04:12:15;21;18;
77365;PMS5003;66430;50.182;11.704;2023-04-03T04:14:40;18;18;
77365;PMS5003;66430;50.182;11.704;2023-04-03T04:17:06;20;20;
77365;PMS5003;66430;50.182;11.704;2023-04-03T04:19:31;20;17;
77365;PMS5003;66430;50.182;11.704;2023-04-03T04:21:57;19;16;
77365;PMS5003;66430;50.182;11.704;2023-04-03T04:24:23;21;17;
77365;PMS5003;66430;50.182;11.704;2023-04-03T04:26:48;21;17;
77365;PMS5003;66430;50.182;11.704;2023-04-03T04:29:13;21;20;
77365;PMS5003;66430;50.182;11.704;2023-04-03T04:31:39;18;15;
77365;PMS5003;66430;50.182;11.704;2023-04-03T04:34:05;17;16;
77365;PMS5003;66430;50.182;11.704;2023-04-03T04:36:30;27;23;
77365;PMS5003;66430;50.182;11.704;2023-04-03T04:39:00;26;22;
77365;PMS5003;66430;50.182;11.704;2023-04-03T04:41:20;26;25;
77365;PMS5003;66430;50.182;11.704;2023-04-03T04:43:46;24;21;
77365;PMS5003;66430;50.182;11.704;2023-04-03T04:46:11;19;17;
77365;PMS5003;66430;50.182;11.704;2023-04-03T04:48:37;19;16;
77365;PMS5003;66430;50.182;11.704;2023-04-03T04:51:03;16;15;
77365;PMS5003;66430;50.182;11.704;2023-04-03T04:53:28;19;19;
77365;PMS5003;66430;50.182;11.704;2023-04-03T04:55:53;19;15;
77365;PMS5003;66430;50.182;11.704;2023-04-03T04:58:19;16;15;
77365;PMS5003;66430;50.182;11.704;2023-04-03T05:00:44;25;24;
77365;PMS5003;66430;50.182;11.704;2023-04-03T05:03:09;19;16;
77365;PMS5003;66430;50.182;11.704;2023-04-03T05:05:34;16;15;
77365;PMS5003;66430;50.182;11.704;2023-04-03T05:08:00;17;14;
77365;PMS5003;66430;50.182;11.704;2023-04-03T05:10:25;23;15;
77365;PMS5003;66430;50.182;11.704;2023-04-03T05:12:50;15;15;
77365;PMS5003;66430;50.182;11.704;2023-04-03T05:15:16;15;14;
77365;PMS5003;66430;50.182;11.704;2023-04-03T05:17:41;16;14;
77365;PMS5003;66430;50.182;11.704;2023-04-03T05:20:07;23;23;
77365;PMS5003;66430;50.182;11.704;2023-04-03T05:22:32;21;16;
77365;PMS5003;66430;50.182;11.704;2023-04-03T05:24:57;21;16;
77365;PMS5003;66430;50.182;11.704;2023-04-03T05:27:23;21;20;
77365;PMS5003;66430;50.182;11.704;2023-04-03T05:29:48;18;16;
77365;PMS5003;66430;50.182;11.704;2023-04-03T05:32:14;20;20;
77365;PMS5003;66430;50.182;11.704;2023-04-03T05:34:39;20;19;
77365;PMS5003;66430;50.182;11.704;2023-04-03T05:37:04;19;16;
77365;PMS5003;66430;50.182;11.704;2023-04-03T05:39:30;28;22;
77365;PMS5003;66430;50.182;11.704;2023-04-03T05:41:55;20;19;
77365;PMS5003;66430;50.182;11.704;2023-04-03T05:44:20;19;16;
77365;PMS5003;66430;50.182;11.704;2023-04-03T05:46:46;27;22;
77365;PMS5003;66430;50.182;11.704;2023-04-03T05:49:11;16;16;
77365;PMS5003;66430;50.182;11.704;2023-04-03T05:51:37;25;20;
77365;PMS5003;66430;50.182;11.704;2023-04-03T05:54:04;16;16;
77365;PMS5003;66430;50.182;11.704;2023-04-03T05:56:28;23;19;
77365;PMS5003;66430;50.182;11.704;2023-04-03T05:58:53;32;31;
77365;PMS5003;66430;50.182;11.704;2023-04-03T06:01:18;24;19;
77365;PMS5003;66430;50.182;11.704;2023-04-03T06:03:43;24;23;
77365;PMS5003;66430;50.182;11.704;2023-04-03T06:06:10;23;20;
77365;PMS5003;66430;50.182;11.704;2023-04-03T06:08:34;23;21;
77365;PMS5003;66430;50.182;11.704;2023-04-03T06:10:59;29;24;
77365;PMS5003;66430;50.182;11.704;2023-04-03T06:13:25;19;17;
77365;PMS5003;66430;50.182;11.704;2023-04-03T06:15:50;25;20;
77365;PMS5003;66430;50.182;11.704;2023-04-03T06:18:15;24;21;
77365;PMS5003;66430;50.182;11.704;2023-04-03T06:20:41;23;21;
77365;PMS5003;66430;50.182;11.704;2023-04-03T06:23:06;25;20;
77365;PMS5003;66430;50.182;11.704;2023-04-03T06:25:32;29;23;
77365;PMS5003;66430;50.182;11.704;2023-04-03T06:27:57;26;24;
77365;PMS5003;66430;50.182;11.704;2023-04-03T06:30:23;23;19;
77365;PMS5003;66430;50.182;11.704;2023-04-03T06:32:48;24;20;
77365;PMS5003;66430;50.182;11.704;2023-04-03T06:35:14;18;16;
77365;PMS5003;66430;50.182;11.704;2023-04-03T06:37:39;19;16;
77365;PMS5003;66430;50.182;11.704;2023-04-03T06:40:06;25;25;
77365;PMS5003;66430;50.182;11.704;2023-04-03T06:42:30;24;18;
77365;PMS5003;66430;50.182;11.704;2023-04-03T06:44:56;23;16;
77365;PMS5003;66430;50.182;11.704;2023-04-03T06:47:20;24;20;
77365;PMS5003;66430;50.182;11.704;2023-04-03T06:49:46;22;19;
77365;PMS5003;66430;50.182;11.704;2023-04-03T06:52:12;20;16;
77365;PMS5003;66430;50.182;11.704;2023-04-03T06:54:38;24;16;
77365;PMS5003;66430;50.182;11.704;2023-04-03T06:57:03;23;19;
77365;PMS5003;66430;50.182;11.704;2023-04-03T06:59:28;20;19;
77365;PMS5003;66430;50.182;11.704;2023-04-03T07:01:53;25;24;
77365;PMS5003;66430;50.182;11.704;2023-04-03T07:04:18;19;16;
77365;PMS5003;66430;50.182;11.704;2023-04-03T07:06:44;20;19;
77365;PMS5003;66430;50.182;11.704;2023-04-03T07:09:09;24;21;
77365;PMS5003;66430;50.182;11.704;2023-04-03T07:11:34;21;20;
77365;PMS5003;66430;50.182;11.704;2023-04-03T07:14:00;15;14;
77365;PMS5003;66430;50.182;11.704;2023-04-03T07:16:26;19;14;
77365;PMS5003;66430;50.182;11.704;2023-04-03T07:18:51;20;19;
77365;PMS5003;66430;50.182;11.704;2023-04-03T07:21:17;22;16;
77365;PMS5003;66430;50.182;11.704;2023-04-03T07:23:42;20;18;
77365;PMS5003;66430;50.182;11.704;2023-04-03T07:26:08;21;18;
77365;PMS5003;66430;50.182;11.704;2023-04-03T07:28:33;25;21;
77365;PMS5003;66430;50.182;11.704;2023-04-03T07:31:00;21;19;
77365;PMS5003;66430;50.182;11.704;2023-04-03T07:33:24;14;14;
77365;PMS5003;66430;50.182;11.704;2023-04-03T07:35:50;16;16;
77365;PMS5003;66430;50.182;11.704;2023-04-03T07:38:15;19;16;
77365;PMS5003;66430;50.182;11.704;2023-04-03T07:40:41;19;16;
77365;PMS5003;66430;50.182;11.704;2023-04-03T07:43:06;12;11;
77365;PMS5003;66430;50.182;11.704;2023-04-03T07:45:32;20;18;
77365;PMS5003;66430;50.182;11.704;2023-04-03T07:47:57;15;14;
77365;PMS5003;66430;50.182;11.704;2023-04-03T07:50:23;23;18;
77365;PMS5003;66430;50.182;11.704;2023-04-03T07:52:48;19;16;
77365;PMS5003;66430;50.182;11.704;2023-04-03T07:55:13;15;15;
77365;PMS5003;66430;50.182;11.704;2023-04-03T07:57:39;12;11;
77365;PMS5003;66430;50.182;11.704;2023-04-03T08:00:05;15;14;
77365;PMS5003;66430;50.182;11.704;2023-04-03T08:02:30;15;14;
77365;PMS5003;66430;50.182;11.704;2023-04-03T08:04:56;12;12;
77365;PMS5003;66430;50.182;11.704;2023-04-03T08:07:21;14;11;
77365;PMS5003;66430;50.182;11.704;2023-04-03T08:09:47;17;15;
77365;PMS5003;66430;50.182;11.704;2023-04-03T08:12:13;11;11;
77365;PMS5003;66430;50.182;11.704;2023-04-03T08:14:38;12;10;
77365;PMS5003;66430;50.182;11.704;2023-04-03T08:17:04;12;12;
77365;PMS5003;66430;50.182;11.704;2023-04-03T08:19:29;19;15;
77365;PMS5003;66430;50.182;11.704;2023-04-03T08:21:55;10;10;
77365;PMS5003;66430;50.182;11.704;2023-04-03T08:24:20;8;8;
77365;PMS5003;66430;50.182;11.704;2023-04-03T08:26:46;15;8;
77365;PMS5003;66430;50.182;11.704;2023-04-03T08:29:12;12;10;
77365;PMS5003;66430;50.182;11.704;2023-04-03T08:31:37;13;13;
77365;PMS5003;66430;50.182;11.704;2023-04-03T08:34:03;13;13;
77365;PMS5003;66430;50.182;11.704;2023-04-03T08:36:29;13;11;
77365;PMS5003;66430;50.182;11.704;2023-04-03T08:38:55;8;8;
77365;PMS5003;66430;50.182;11.704;2023-04-03T08:41:22;8;8;
77365;PMS5003;66430;50.182;11.704;2023-04-03T08:43:52;16;16;
77365;PMS5003;66430;50.182;11.704;2023-04-03T08:46:12;14;11;
77365;PMS5003;66430;50.182;11.704;2023-04-03T08:48:38;14;11;
77365;PMS5003;66430;50.182;11.704;2023-04-03T08:51:04;15;11;
77365;PMS5003;66430;50.182;11.704;2023-04-03T08:53:29;12;11;
77365;PMS5003;66430;50.182;11.704;2023-04-03T08:55:54;16;11;
77365;PMS5003;66430;50.182;11.704;2023-04-03T08:58:20;14;11;
77365;PMS5003;66430;50.182;11.704;2023-04-03T09:00:46;17;13;
77365;PMS5003;66430;50.182;11.704;2023-04-03T09:03:11;12;12;
77365;PMS5003;66430;50.182;11.704;2023-04-03T09:05:39;16;16;
77365;PMS5003;66430;50.182;11.704;2023-04-03T09:08:03;16;14;
77365;PMS5003;66430;50.182;11.704;2023-04-03T09:10:28;16;15;
77365;PMS5003;66430;50.182;11.704;2023-04-03T09:12:55;16;15;
77365;PMS5003;66430;50.182;11.704;2023-04-03T09:15:19;11;11;
77365;PMS5003;66430;50.182;11.704;2023-04-03T09:17:47;16;12;
77365;PMS5003;66430;50.182;11.704;2023-04-03T09:20:14;12;12;
77365;PMS5003;66430;50.182;11.704;2023-04-03T09:22:36;15;13;
77365;PMS5003;66430;50.182;11.704;2023-04-03T09:25:02;12;12;
77365;PMS5003;66430;50.182;11.704;2023-04-03T09:27:26;16;12;
77365;PMS5003;66430;50.182;11.704;2023-04-03T09:29:57;13;12;
77365;PMS5003;66430;50.182;11.704;2023-04-03T09:32:19;17;16;
77365;PMS5003;66430;50.182;11.704;2023-04-03T09:34:43;10;10;
77365;PMS5003;66430;50.182;11.704;2023-04-03T09:37:09;11;10;
77365;PMS5003;66430;50.182;11.704;2023-04-03T09:42:00;13;13;
77365;PMS5003;66430;50.182;11.704;2023-04-03T09:44:26;12;11;
77365;PMS5003;66430;50.182;11.704;2023-04-03T09:46:51;11;11;
77365;PMS5003;66430;50.182;11.704;2023-04-03T09:49:17;20;20;
77365;PMS5003;66430;50.182;11.704;2023-04-03T09:51:42;13;11;
77365;PMS5003;66430;50.182;11.704;2023-04-03T09:56:33;12;12;
77365;PMS5003;66430;50.182;11.704;2023-04-03T09:59:11;17;12;
77365;PMS5003;66430;50.182;11.704;2023-04-03T10:01:27;16;13;
77365;PMS5003;66430;50.182;11.704;2023-04-03T10:06:22;12;12;
77365;PMS5003;66430;50.182;11.704;2023-04-03T10:08:42;18;12;
77365;PMS5003;66430;50.182;11.704;2023-04-03T10:11:09;43;43;
77365;PMS5003;66430;50.182;11.704;2023-04-03T10:13:32;13;12;
77365;PMS5003;66430;50.182;11.704;2023-04-03T10:15:59;12;12;
77365;PMS5003;66430;50.182;11.704;2023-04-03T10:18:28;12;11;
77365;PMS5003;66430;50.182;11.704;2023-04-03T10:20:49;16;13;
77365;PMS5003;66430;50.182;11.704;2023-04-03T10:23:17;15;13;
77365;PMS5003;66430;50.182;11.704;2023-04-03T10:25:41;8;8;
77365;PMS5003;66430;50.182;11.704;2023-04-03T10:28:08;7;7;
77365;PMS5003;66430;50.182;11.704;2023-04-03T10:30:36;11;11;
77365;PMS5003;66430;50.182;11.704;2023-04-03T10:32:59;12;12;
77365;PMS5003;66430;50.182;11.704;2023-04-03T10:35:26;16;14;
77365;PMS5003;66430;50.182;11.704;2023-04-03T10:37:52;14;12;
77365;PMS5003;66430;50.182;11.704;2023-04-03T10:40:18;9;9;
77365;PMS5003;66430;50.182;11.704;2023-04-03T10:42:41;16;12;
77365;PMS5003;66430;50.182;11.704;2023-04-03T10:45:11;19;14;
77365;PMS5003;66430;50.182;11.704;2023-04-03T10:47:33;12;12;
77365;PMS5003;66430;50.182;11.704;2023-04-03T10:49:59;11;11;
77365;PMS5003;66430;50.182;11.704;2023-04-03T10:52:23;11;9;
77365;PMS5003;66430;50.182;11.704;2023-04-03T10:54:51;14;13;
77365;PMS5003;66430;50.182;11.704;2023-04-03T10:57:13;11;11;
77365;PMS5003;66430;50.182;11.704;2023-04-03T10:59:40;8;7;
77365;PMS5003;66430;50.182;11.704;2023-04-03T11:02:06;8;7;
77365;PMS5003;66430;50.182;11.704;2023-04-03T11:04:31;14;11;
77365;PMS5003;66430;50.182;11.704;2023-04-03T11:06:57;9;7;
77365;PMS5003;66430;50.182;11.704;2023-04-03T11:09:23;14;11;
77365;PMS5003;66430;50.182;11.704;2023-04-03T11:11:47;8;8;
77365;PMS5003;66430;50.182;11.704;2023-04-03T11:14:14;12;11;
77365;PMS5003;66430;50.182;11.704;2023-04-03T11:16:40;11;9;
77365;PMS5003;66430;50.182;11.704;2023-04-03T11:19:05;10;9;
77365;PMS5003;66430;50.182;11.704;2023-04-03T11:21:32;9;9;
77365;PMS5003;66430;50.182;11.704;2023-04-03T11:23:57;9;8;
77365;PMS5003;66430;50.182;11.704;2023-04-03T11:26:22;9;9;
77365;PMS5003;66430;50.182;11.704;2023-04-03T11:28:51;10;10;
77365;PMS5003;66430;50.182;11.704;2023-04-03T11:31:19;9;9;
77365;PMS5003;66430;50.182;11.704;2023-04-03T11:33:41;13;12;
77365;PMS5003;66430;50.182;11.704;2023-04-03T11:36:05;13;9;
77365;PMS5003;66430;50.182;11.704;2023-04-03T11:38:30;9;8;
77365;PMS5003;66430;50.182;11.704;2023-04-03T11:40:57;13;11;
77365;PMS5003;66430;50.182;11.704;2023-04-03T11:43:22;12;11;
77365;PMS5003;66430;50.182;11.704;2023-04-03T11:45:50;12;12;
77365;PMS5003;66430;50.182;11.704;2023-04-03T11:50:40;9;8;
77365;PMS5003;66430;50.182;11.704;2023-04-03T11:55:42;9;9;
77365;PMS5003;66430;50.182;11.704;2023-04-03T12:02:46;11;8;
77365;PMS5003;66430;50.182;11.704;2023-04-03T12:07:37;8;8;
77365;PMS5003;66430;50.182;11.704;2023-04-03T12:12:30;7;7;
77365;PMS5003;66430;50.182;11.704;2023-04-03T12:14:54;7;7;
77365;PMS5003;66430;50.182;11.704;2023-04-03T12:17:20;7;7;
77365;PMS5003;66430;50.182;11.704;2023-04-03T12:19:45;12;10;
77365;PMS5003;66430;50.182;11.704;2023-04-03T12:22:12;8;6;
77365;PMS5003;66430;50.182;11.704;2023-04-03T12:24:37;10;9;
77365;PMS5003;66430;50.182;11.704;2023-04-03T12:27:04;7;6;
77365;PMS5003;66430;50.182;11.704;2023-04-03T12:29:29;9;7;
77365;PMS5003;66430;50.182;11.704;2023-04-03T12:31:56;8;8;
77365;PMS5003;66430;50.182;11.704;2023-04-03T12:36:48;7;4;
77365;PMS5003;66430;50.182;11.704;2023-04-03T12:39:13;7;7;
77365;PMS5003;66430;50.182;11.704;2023-04-03T12:41:37;8;6;
77365;PMS5003;66430;50.182;11.704;2023-04-03T12:44:06;8;7;
77365;PMS5003;66430;50.182;11.704;2023-04-03T12:46:28;7;6;
77365;PMS5003;66430;50.182;11.704;2023-04-03T12:48:53;6;4;
77365;PMS5003;66430;50.182;11.704;2023-04-03T12:51:19;7;6;
77365;PMS5003;66430;50.182;11.704;2023-04-03T12:53:44;6;6;
77365;PMS5003;66430;50.182;11.704;2023-04-03T12:56:19;4;4;
77365;PMS5003;66430;50.182;11.704;2023-04-03T12:58:35;3;3;
77365;PMS5003;66430;50.182;11.704;2023-04-03T13:01:01;7;7;
77365;PMS5003;66430;50.182;11.704;2023-04-03T13:03:26;9;6;
77365;PMS5003;66430;50.182;11.704;2023-04-03T13:05:52;7;7;
77365;PMS5003;66430;50.182;11.704;2023-04-03T13:08:18;7;6;
77365;PMS5003;66430;50.182;11.704;2023-04-03T13:10:46;6;6;
77365;PMS5003;66430;50.182;11.704;2023-04-03T13:13:09;8;7;
77365;PMS5003;66430;50.182;11.704;2023-04-03T13:18:00;8;8;
77365;PMS5003;66430;50.182;11.704;2023-04-03T13:20:26;7;6;
77365;PMS5003;66430;50.182;11.704;2023-04-03T13:22:53;6;6;
77365;PMS5003;66430;50.182;11.704;2023-04-03T13:25:17;6;6;
77365;PMS5003;66430;50.182;11.704;2023-04-03T13:27:42;7;6;
77365;PMS5003;66430;50.182;11.704;2023-04-03T13:32:34;9;8;
77365;PMS5003;66430;50.182;11.704;2023-04-03T13:34:59;7;5;
77365;PMS5003;66430;50.182;11.704;2023-04-03T13:37:27;7;4;
77365;PMS5003;66430;50.182;11.704;2023-04-03T13:39:57;7;7;
77365;PMS5003;66430;50.182;11.704;2023-04-03T13:42:20;4;3;
77365;PMS5003;66430;50.182;11.704;2023-04-03T13:44:42;7;4;
77365;PMS5003;66430;50.182;11.704;2023-04-03T13:47:16;3;3;
77365;PMS5003;66430;50.182;11.704;2023-04-03T13:49:34;6;6;
77365;PMS5003;66430;50.182;11.704;2023-04-03T13:51:59;4;4;
77365;PMS5003;66430;50.182;11.704;2023-04-03T13:54:28;6;6;
77365;PMS5003;66430;50.182;11.704;2023-04-03T13:56:52;8;7;
77365;PMS5003;66430;50.182;11.704;2023-04-03T14:01:43;4;4;
77365;PMS5003;66430;50.182;11.704;2023-04-03T14:04:12;4;4;
77365;PMS5003;66430;50.182;11.704;2023-04-03T14:06:32;3;3;
77365;PMS5003;66430;50.182;11.704;2023-04-03T14:08:58;3;3;
77365;PMS5003;66430;50.182;11.704;2023-04-03T14:11:24;4;4;
77365;PMS5003;66430;50.182;11.704;2023-04-03T14:13:49;3;3;
77365;PMS5003;66430;50.182;11.704;2023-04-03T14:16:15;6;6;
77365;PMS5003;66430;50.182;11.704;2023-04-03T14:18:40;6;6;
77365;PMS5003;66430;50.182;11.704;2023-04-03T14:21:06;4;4;
77365;PMS5003;66430;50.182;11.704;2023-04-03T14:23:31;3;3;
77365;PMS5003;66430;50.182;11.704;2023-04-03T14:25:57;3;3;
77365;PMS5003;66430;50.182;11.704;2023-04-03T14:28:22;6;4;
77365;PMS5003;66430;50.182;11.704;2023-04-03T14:30:49;7;7;
77365;PMS5003;66430;50.182;11.704;2023-04-03T14:33:15;4;4;
77365;PMS5003;66430;50.182;11.704;2023-04-03T14:35:39;2;2;
77365;PMS5003;66430;50.182;11.704;2023-04-03T14:38:05;4;4;
77365;PMS5003;66430;50.182;11.704;2023-04-03T14:40:31;3;3;
77365;PMS5003;66430;50.182;11.704;2023-04-03T14:42:56;3;3;
77365;PMS5003;66430;50.182;11.704;2023-04-03T14:45:22;3;2;
77365;PMS5003;66430;50.182;11.704;2023-04-03T14:47:49;3;3;
77365;PMS5003;66430;50.182;11.704;2023-04-03T14:50:15;8;3;
77365;PMS5003;66430;50.182;11.704;2023-04-03T14:52:39;4;3;
77365;PMS5003;66430;50.182;11.704;2023-04-03T14:55:05;4;3;
77365;PMS5003;66430;50.182;11.704;2023-04-03T14:57:31;3;3;
77365;PMS5003;66430;50.182;11.704;2023-04-03T14:59:56;4;4;
77365;PMS5003;66430;50.182;11.704;2023-04-03T15:02:27;2;2;
77365;PMS5003;66430;50.182;11.704;2023-04-03T15:04:47;3;2;
77365;PMS5003;66430;50.182;11.704;2023-04-03T15:07:13;3;3;
77365;PMS5003;66430;50.182;11.704;2023-04-03T15:09:39;2;2;
77365;PMS5003;66430;50.182;11.704;2023-04-03T15:12:04;2;2;
77365;PMS5003;66430;50.182;11.704;2023-04-03T15:14:30;2;2;
77365;PMS5003;66430;50.182;11.704;2023-04-03T15:16:56;4;3;
77365;PMS5003;66430;50.182;11.704;2023-04-03T15:19:23;2;2;
77365;PMS5003;66430;50.182;11.704;2023-04-03T15:21:47;4;4;
77365;PMS5003;66430;50.182;11.704;2023-04-03T15:24:13;6;4;
77365;PMS5003;66430;50.182;11.704;2023-04-03T15:26:38;3;2;
77365;PMS5003;66430;50.182;11.704;2023-04-03T15:29:04;3;3;
77365;PMS5003;66430;50.182;11.704;2023-04-03T15:31:29;3;3;
77365;PMS5003;66430;50.182;11.704;2023-04-03T15:33:55;2;2;
77365;PMS5003;66430;50.182;11.704;2023-04-03T15:36:20;2;2;
77365;PMS5003;66430;50.182;11.704;2023-04-03T15:38:46;2;2;
77365;PMS5003;66430;50.182;11.704;2023-04-03T15:41:12;3;3;
77365;PMS5003;66430;50.182;11.704;2023-04-03T15:43:37;6;4;
77365;PMS5003;66430;50.182;11.704;2023-04-03T15:46:03;2;2;
77365;PMS5003;66430;50.182;11.704;2023-04-03T15:48:29;3;3;
77365;PMS5003;66430;50.182;11.704;2023-04-03T15:50:54;4;3;
77365;PMS5003;66430;50.182;11.704;2023-04-03T15:53:20;2;2;
77365;PMS5003;66430;50.182;11.704;2023-04-03T15:55:46;2;2;
77365;PMS5003;66430;50.182;11.704;2023-04-03T15:58:11;3;3;
77365;PMS5003;66430;50.182;11.704;2023-04-03T16:00:37;3;3;
77365;PMS5003;66430;50.182;11.704;2023-04-03T16:03:05;3;3;
77365;PMS5003;66430;50.182;11.704;2023-04-03T16:05:28;4;4;
77365;PMS5003;66430;50.182;11.704;2023-04-03T16:07:54;4;4;
77365;PMS5003;66430;50.182;11.704;2023-04-03T16:10:20;2;2;
77365;PMS5003;66430;50.182;11.704;2023-04-03T16:12:45;3;3;
77365;PMS5003;66430;50.182;11.704;2023-04-03T16:15:11;3;3;
77365;PMS5003;66430;50.182;11.704;2023-04-03T16:17:37;3;3;
77365;PMS5003;66430;50.182;11.704;2023-04-03T16:20:03;4;4;
77365;PMS5003;66430;50.182;11.704;2023-04-03T16:22:28;4;3;
77365;PMS5003;66430;50.182;11.704;2023-04-03T16:24:54;3;3;
77365;PMS5003;66430;50.182;11.704;2023-04-03T16:27:19;3;3;
77365;PMS5003;66430;50.182;11.704;2023-04-03T16:29:45;3;2;
77365;PMS5003;66430;50.182;11.704;2023-04-03T16:32:10;6;3;